Time;durP1;ratioP1;P1;durP2;ratioP2;P2;SDS_P1;SDS_P2;PMS_P1;PMS_P2;Temp;Humidity;BMP_temperature;BMP_pressure;BME280_temperature;BME280_humidity;BME280_pressure;Samples;Min_cycle;Max_cycle;Signal;HPM_P1;HPM_P2
2023/01/06 00:00:16;;;;;;;9.90;4.50;;;;;;;;;;4957240;28;20035;-67
2023/01/06 00:02:44;;;;;;;9.23;4.20;;;;;;;;;;4961203;28;20042;-68
2023/01/06 00:05:10;;;;;;;9.30;3.95;;;;;;;;;;4960321;28;20031;-68
2023/01/06 00:07:37;;;;;;;9.40;4.10;;;;;;;;;;4961396;28;20030;-68
2023/01/06 00:10:03;;;;;;;8.90;4.18;;;;;;;;;;4962269;28;20030;-68
2023/01/06 00:12:29;;;;;;;9.50;3.55;;;;;;;;;;4956276;28;20367;-67
2023/01/06 00:14:55;;;;;;;10.80;4.30;;;;;;;;;;4959828;28;20318;-67
2023/01/06 00:17:21;;;;;;;10.45;4.07;;;;;;;;;;4974397;28;20556;-69
2023/01/06 00:19:47;;;;;;;9.40;3.47;;;;;;;;;;4964196;28;20120;-67
2023/01/06 00:22:14;;;;;;;8.88;3.95;;;;;;;;;;4957493;28;20152;-67
2023/01/06 00:24:40;;;;;;;8.73;3.22;;;;;;;;;;4963231;28;20034;-69
2023/01/06 00:27:06;;;;;;;8.57;3.35;;;;;;;;;;4957779;28;20044;-67
2023/01/06 00:29:33;;;;;;;8.48;3.45;;;;;;;;;;4961015;28;20053;-69
2023/01/06 00:31:59;;;;;;;8.38;3.10;;;;;;;;;;4964227;28;20174;-69
2023/01/06 00:34:26;;;;;;;8.70;3.13;;;;;;;;;;4962229;28;20094;-69
2023/01/06 00:36:52;;;;;;;9.20;3.03;;;;;;;;;;4962445;28;20038;-69
2023/01/06 00:39:18;;;;;;;9.35;3.42;;;;;;;;;;4958934;28;20034;-69
2023/01/06 00:42:02;;;;;;;7.78;3.33;;;;;;;;;;4962203;28;20070;-67
2023/01/06 00:44:29;;;;;;;9.27;3.78;;;;;;;;;;4956568;28;20045;-68
2023/01/06 00:46:55;;;;;;;7.70;3.47;;;;;;;;;;4960730;28;20355;-69
2023/01/06 00:49:21;;;;;;;9.32;3.88;;;;;;;;;;4960649;28;20089;-69
2023/01/06 00:51:48;;;;;;;8.82;3.90;;;;;;;;;;4961515;28;20505;-68
2023/01/06 00:54:14;;;;;;;;;;;;;;;;;;4958502;28;20026;-67
2023/01/06 00:56:43;;;;;;;9.45;3.80;;;;;;;;;;4964373;28;19940;-68
2023/01/06 00:59:10;;;;;;;11.13;3.90;;;;;;;;;;4960230;28;20041;-67
2023/01/06 01:01:36;;;;;;;10.82;3.40;;;;;;;;;;4962898;28;20034;-67
2023/01/06 01:04:02;;;;;;;9.27;3.10;;;;;;;;;;4962506;28;20042;-68
2023/01/06 01:06:30;;;;;;;8.65;3.45;;;;;;;;;;4943404;28;20395;-68
2023/01/06 01:08:58;;;;;;;11.02;3.30;;;;;;;;;;4961692;28;20591;-67
2023/01/06 01:14:10;;;;;;;9.60;3.72;;;;;;;;;;4958092;28;20310;-69
2023/01/06 01:16:36;;;;;;;12.48;3.60;;;;;;;;;;4961031;28;20529;-69
2023/01/06 01:19:02;;;;;;;9.55;4.10;;;;;;;;;;4962543;28;20038;-69
2023/01/06 01:21:28;;;;;;;9.60;3.47;;;;;;;;;;4956479;28;20026;-69
2023/01/06 01:23:55;;;;;;;9.02;3.50;;;;;;;;;;4958939;28;20133;-69
2023/01/06 01:26:21;;;;;;;9.93;3.90;;;;;;;;;;4956190;28;20472;-69
2023/01/06 01:28:47;;;;;;;8.00;3.40;;;;;;;;;;4960961;28;20539;-69
2023/01/06 01:31:14;;;;;;;8.80;3.58;;;;;;;;;;4956763;28;20049;-69
2023/01/06 01:33:41;;;;;;;9.25;4.00;;;;;;;;;;4961507;28;20088;-68
2023/01/06 01:36:07;;;;;;;;;;;;;;;;;;4956676;28;20042;-67
2023/01/06 01:38:33;;;;;;;10.38;3.60;;;;;;;;;;4959112;28;20264;-67
2023/01/06 01:40:59;;;;;;;8.90;3.72;;;;;;;;;;4961418;28;20030;-69
2023/01/06 01:43:26;;;;;;;9.95;4.00;;;;;;;;;;4954535;28;20969;-68
2023/01/06 01:45:53;;;;;;;10.07;4.25;;;;;;;;;;4959837;28;20052;-68
2023/01/06 01:48:25;;;;;;;9.63;3.97;;;;;;;;;;4958123;28;20112;-67
2023/01/06 01:50:53;;;;;;;9.93;4.43;;;;;;;;;;4958780;28;20794;-69
2023/01/06 01:53:22;;;;;;;9.25;4.13;;;;;;;;;;4953882;28;20469;-68
2023/01/06 01:55:50;;;;;;;10.27;4.47;;;;;;;;;;4957819;28;20038;-69
2023/01/06 01:58:19;;;;;;;13.27;5.38;;;;;;;;;;4957285;28;20033;-69
2023/01/06 02:00:45;;;;;;;13.45;4.75;;;;;;;;;;4960242;28;20567;-67
2023/01/06 02:03:13;;;;;;;10.32;5.43;;;;;;;;;;4954884;28;20037;-67
2023/01/06 02:05:40;;;;;;;13.63;6.28;;;;;;;;;;4956744;28;20027;-67
2023/01/06 02:08:10;;;;;;;10.70;5.32;;;;;;;;;;4957313;28;20616;-67
2023/01/06 02:10:36;;;;;;;9.93;4.47;;;;;;;;;;4957063;28;20031;-69
2023/01/06 02:13:02;;;;;;;11.30;5.45;;;;;;;;;;4959042;28;20293;-67
2023/01/06 02:15:29;;;;;;;16.90;9.88;;;;;;;;;;4955043;28;20038;-67
2023/01/06 02:18:02;;;;;;;20.98;12.45;;;;;;;;;;4958587;28;20141;-68
2023/01/06 02:20:34;;;;;;;22.35;14.27;;;;;;;;;;4956762;28;20130;-68
2023/01/06 02:23:00;;;;;;;23.98;15.80;;;;;;;;;;4960781;28;20066;-68
2023/01/06 02:25:29;;;;;;;23.13;14.48;;;;;;;;;;4956671;28;20191;-68
2023/01/06 02:28:28;;;;;;;23.30;13.68;;;;;;;;;;4958770;28;20548;-68
2023/01/06 02:31:09;;;;;;;22.67;14.15;;;;;;;;;;4957924;28;20030;-67
2023/01/06 02:33:48;;;;;;;27.13;15.55;;;;;;;;;;4956893;28;20282;-67
2023/01/06 02:36:24;;;;;;;21.50;15.02;;;;;;;;;;4956469;28;20439;-68
2023/01/06 02:39:00;;;;;;;25.70;14.98;;;;;;;;;;4959618;28;20038;-67
2023/01/06 02:41:30;;;;;;;23.30;13.77;;;;;;;;;;4961067;28;20046;-67
2023/01/06 02:43:56;;;;;;;22.60;14.27;;;;;;;;;;4960886;28;20117;-68
2023/01/06 02:46:41;;;;;;;21.33;13.27;;;;;;;;;;4955671;28;20048;-69
2023/01/06 02:49:25;;;;;;;20.73;10.05;;;;;;;;;;4960238;28;20697;-67
2023/01/06 02:51:58;;;;;;;19.35;10.95;;;;;;;;;;4962903;28;20376;-67
2023/01/06 02:54:30;;;;;;;16.88;8.43;;;;;;;;;;4957779;28;20120;-67
2023/01/06 02:57:01;;;;;;;14.85;7.50;;;;;;;;;;4964152;28;20031;-67
2023/01/06 02:59:33;;;;;;;13.38;6.60;;;;;;;;;;4976599;28;20420;-67
2023/01/06 03:02:00;;;;;;;13.15;5.95;;;;;;;;;;4961748;28;20052;-69
2023/01/06 03:04:29;;;;;;;11.00;5.03;;;;;;;;;;4960397;28;20094;-67
2023/01/06 03:06:57;;;;;;;12.55;5.38;;;;;;;;;;4963929;28;20560;-67
2023/01/06 03:09:26;;;;;;;15.07;4.82;;;;;;;;;;4957045;28;20033;-69
2023/01/06 03:11:52;;;;;;;9.88;4.80;;;;;;;;;;4959130;28;20412;-67
2023/01/06 03:14:22;;;;;;;10.27;4.57;;;;;;;;;;4958714;28;20026;-68
2023/01/06 03:16:48;;;;;;;10.88;4.72;;;;;;;;;;4959718;28;20034;-69
2023/01/06 03:19:14;;;;;;;9.95;4.47;;;;;;;;;;4960320;28;20030;-68
2023/01/06 03:21:42;;;;;;;9.30;4.45;;;;;;;;;;4962187;28;20457;-67
2023/01/06 03:24:09;;;;;;;11.02;4.55;;;;;;;;;;4960880;28;20049;-67
2023/01/06 03:26:36;;;;;;;10.43;4.18;;;;;;;;;;4959945;28;20034;-68
2023/01/06 03:29:05;;;;;;;9.27;4.13;;;;;;;;;;4959742;28;20069;-69
2023/01/06 03:31:34;;;;;;;10.27;4.47;;;;;;;;;;4961552;28;20094;-67
2023/01/06 03:34:06;;;;;;;9.75;4.35;;;;;;;;;;4961727;28;20034;-67
2023/01/06 03:36:51;;;;;;;10.45;4.35;;;;;;;;;;4961789;28;20764;-69
2023/01/06 03:39:22;;;;;;;10.55;4.78;;;;;;;;;;4957850;28;20252;-67
2023/01/06 03:44:41;;;;;;;10.73;4.25;;;;;;;;;;4957669;28;20911;-68
2023/01/06 03:47:13;;;;;;;9.93;4.28;;;;;;;;;;4960408;28;20070;-67
2023/01/06 03:49:45;;;;;;;9.13;3.72;;;;;;;;;;4959977;28;20566;-67
2023/01/06 03:52:20;;;;;;;8.60;3.38;;;;;;;;;;4957240;28;20145;-68
2023/01/06 03:54:49;;;;;;;7.93;3.22;;;;;;;;;;4957971;28;20069;-70
2023/01/06 03:57:20;;;;;;;6.50;2.70;;;;;;;;;;4950270;28;20445;-68
2023/01/06 03:59:48;;;;;;;9.27;3.38;;;;;;;;;;4960790;28;20549;-68
2023/01/06 04:02:15;;;;;;;8.10;3.50;;;;;;;;;;4958124;28;20038;-69
2023/01/06 04:04:41;;;;;;;9.15;3.63;;;;;;;;;;4961152;28;20034;-69
2023/01/06 04:07:07;;;;;;;8.32;3.30;;;;;;;;;;4956528;28;20413;-68
2023/01/06 04:09:34;;;;;;;8.07;3.28;;;;;;;;;;4962039;28;20052;-68
2023/01/06 04:14:44;;;;;;;9.77;4.07;;;;;;;;;;4956877;28;20053;-69
2023/01/06 04:17:11;;;;;;;10.60;4.75;;;;;;;;;;4954521;28;20121;-67
2023/01/06 04:19:37;;;;;;;9.13;3.95;;;;;;;;;;4962792;28;20041;-69
2023/01/06 04:22:03;;;;;;;9.23;4.30;;;;;;;;;;4962190;28;20042;-68
2023/01/06 04:24:29;;;;;;;9.52;4.35;;;;;;;;;;4960190;28;20129;-67
2023/01/06 04:26:55;;;;;;;8.85;4.00;;;;;;;;;;4956923;28;20113;-68
2023/01/06 04:29:21;;;;;;;9.38;3.83;;;;;;;;;;4959527;28;20429;-68
2023/01/06 04:31:48;;;;;;;10.48;4.28;;;;;;;;;;4957853;28;20026;-68
2023/01/06 04:34:14;;;;;;;7.85;3.72;;;;;;;;;;4958288;28;20125;-68
2023/01/06 04:36:40;;;;;;;9.15;4.05;;;;;;;;;;4961227;28;20038;-68
2023/01/06 04:39:06;;;;;;;12.25;3.92;;;;;;;;;;4953231;28;20038;-68
2023/01/06 04:41:32;;;;;;;9.43;4.32;;;;;;;;;;4959804;28;20233;-68
2023/01/06 04:43:59;;;;;;;8.13;3.63;;;;;;;;;;4957468;28;20132;-68
2023/01/06 04:46:25;;;;;;;9.23;3.53;;;;;;;;;;4959303;28;20053;-68
2023/01/06 04:48:51;;;;;;;9.23;3.42;;;;;;;;;;4960175;28;20054;-68
2023/01/06 04:51:17;;;;;;;8.27;3.33;;;;;;;;;;4958345;28;20484;-68
2023/01/06 04:53:43;;;;;;;8.55;3.40;;;;;;;;;;4958426;28;20053;-68
2023/01/06 04:56:11;;;;;;;8.35;3.45;;;;;;;;;;4955512;28;20059;-68
2023/01/06 04:58:37;;;;;;;9.45;3.03;;;;;;;;;;4960368;28;20686;-68
2023/01/06 05:01:06;;;;;;;8.00;2.80;;;;;;;;;;4959176;28;20077;-68
2023/01/06 05:03:33;;;;;;;7.68;3.10;;;;;;;;;;4957706;28;20421;-68
2023/01/06 05:06:01;;;;;;;7.95;2.80;;;;;;;;;;4959436;28;20565;-68
2023/01/06 05:08:27;;;;;;;8.32;2.88;;;;;;;;;;4952991;28;20041;-68
2023/01/06 05:11:04;;;;;;;6.50;2.65;;;;;;;;;;4959444;28;20027;-68
2023/01/06 05:13:31;;;;;;;6.72;2.40;;;;;;;;;;4956087;28;20035;-68
2023/01/06 05:15:57;;;;;;;6.88;2.13;;;;;;;;;;4957964;28;20033;-68
2023/01/06 05:18:23;;;;;;;5.65;2.10;;;;;;;;;;4955000;28;20151;-68
2023/01/06 05:20:53;;;;;;;5.47;2.10;;;;;;;;;;4954552;28;20022;-68
2023/01/06 05:23:19;;;;;;;7.43;2.15;;;;;;;;;;4954886;28;20858;-68
2023/01/06 05:25:46;;;;;;;5.78;2.20;;;;;;;;;;4960533;28;20034;-68
2023/01/06 05:28:13;;;;;;;6.43;2.05;;;;;;;;;;4956635;28;20031;-68
2023/01/06 05:30:39;;;;;;;7.82;2.65;;;;;;;;;;4959999;28;20666;-68
2023/01/06 05:33:06;;;;;;;7.00;2.70;;;;;;;;;;4955896;28;20389;-68
2023/01/06 05:35:32;;;;;;;8.30;2.53;;;;;;;;;;4955777;28;20209;-68
2023/01/06 05:37:58;;;;;;;5.97;2.33;;;;;;;;;;4956559;28;20145;-68
2023/01/06 05:40:24;;;;;;;7.13;2.30;;;;;;;;;;4955108;28;20385;-68
2023/01/06 05:42:54;;;;;;;6.22;2.25;;;;;;;;;;4957189;28;20101;-68
2023/01/06 05:45:21;;;;;;;8.57;2.25;;;;;;;;;;4952552;28;20520;-68
2023/01/06 05:47:47;;;;;;;6.10;2.03;;;;;;;;;;4957610;28;20053;-68
2023/01/06 05:50:13;;;;;;;5.20;2.00;;;;;;;;;;4954066;28;21009;-67
2023/01/06 05:52:39;;;;;;;7.80;2.70;;;;;;;;;;4960399;28;20580;-67
2023/01/06 05:55:06;;;;;;;5.97;2.05;;;;;;;;;;4960485;28;20034;-67
2023/01/06 05:57:32;;;;;;;;;;;;;;;;;;4956256;28;20575;-68
2023/01/06 05:59:58;;;;;;;6.47;2.28;;;;;;;;;;4972053;28;19949;-68
2023/01/06 06:02:24;;;;;;;7.28;2.50;;;;;;;;;;4957328;28;20026;-67
2023/01/06 06:04:51;;;;;;;7.95;2.63;;;;;;;;;;4953984;28;20031;-67
2023/01/06 06:07:17;;;;;;;7.10;2.50;;;;;;;;;;4956072;28;20466;-67
2023/01/06 06:09:43;;;;;;;11.75;2.83;;;;;;;;;;4959492;28;20026;-67
2023/01/06 06:12:09;;;;;;;6.82;2.58;;;;;;;;;;4958253;28;20073;-67
2023/01/06 06:14:35;;;;;;;7.38;2.47;;;;;;;;;;4961285;28;20125;-68
2023/01/06 06:17:01;;;;;;;8.27;2.80;;;;;;;;;;4961249;28;20070;-68
2023/01/06 06:19:28;;;;;;;9.57;2.72;;;;;;;;;;4957819;28;20092;-67
2023/01/06 06:21:54;;;;;;;8.27;3.10;;;;;;;;;;4960464;28;20046;-68
2023/01/06 06:24:20;;;;;;;6.60;2.50;;;;;;;;;;4959071;28;20033;-68
2023/01/06 06:26:46;;;;;;;8.52;2.67;;;;;;;;;;4960173;28;20465;-67
2023/01/06 06:29:12;;;;;;;8.05;3.08;;;;;;;;;;4960194;28;20046;-68
2023/01/06 06:31:38;;;;;;;7.60;3.30;;;;;;;;;;4961304;28;20608;-68
2023/01/06 06:34:04;;;;;;;7.90;3.08;;;;;;;;;;4961322;28;20038;-67
2023/01/06 06:36:31;;;;;;;8.32;3.55;;;;;;;;;;4963594;28;20395;-69
2023/01/06 06:38:57;;;;;;;;;;;;;;;;;;4963660;28;20117;-67
2023/01/06 06:41:24;;;;;;;10.45;3.90;;;;;;;;;;4973669;28;19925;-68
2023/01/06 06:43:51;;;;;;;10.57;4.10;;;;;;;;;;4963718;28;20202;-68
2023/01/06 06:46:18;;;;;;;8.10;3.83;;;;;;;;;;4959101;28;20564;-68
2023/01/06 06:48:44;;;;;;;9.30;3.95;;;;;;;;;;4958384;28;20556;-67
2023/01/06 06:51:15;;;;;;;10.15;4.47;;;;;;;;;;4958143;28;20023;-67
2023/01/06 06:53:42;;;;;;;9.07;4.18;;;;;;;;;;4963984;28;20445;-67
2023/01/06 06:56:09;;;;;;;10.20;4.13;;;;;;;;;;4959482;28;20038;-67
2023/01/06 06:58:36;;;;;;;9.77;4.45;;;;;;;;;;4963935;28;20097;-68
2023/01/06 07:01:09;;;;;;;9.18;4.13;;;;;;;;;;4960773;28;20489;-68
2023/01/06 07:03:35;;;;;;;10.38;4.82;;;;;;;;;;4959916;28;20330;-67
2023/01/06 07:06:02;;;;;;;11.15;5.15;;;;;;;;;;4963430;28;20491;-67
2023/01/06 07:08:29;;;;;;;14.95;7.50;;;;;;;;;;4961785;28;20030;-67
2023/01/06 07:10:55;;;;;;;15.48;8.10;;;;;;;;;;4964013;28;20663;-69
2023/01/06 07:13:21;;;;;;;14.65;6.70;;;;;;;;;;4958076;28;20510;-67
2023/01/06 07:15:47;;;;;;;15.38;6.18;;;;;;;;;;4957701;28;20069;-69
2023/01/06 07:18:13;;;;;;;10.40;5.20;;;;;;;;;;4959913;28;20145;-69
2023/01/06 07:20:39;;;;;;;10.60;4.93;;;;;;;;;;4960609;28;20107;-69
2023/01/06 07:23:06;;;;;;;10.07;5.13;;;;;;;;;;4958732;28;20266;-69
2023/01/06 07:25:32;;;;;;;11.43;6.15;;;;;;;;;;4961591;28;20388;-69
2023/01/06 07:28:04;;;;;;;15.82;7.50;;;;;;;;;;4956578;28;20054;-69
2023/01/06 07:30:30;;;;;;;17.10;8.15;;;;;;;;;;4956303;28;20022;-69
2023/01/06 07:32:56;;;;;;;15.15;8.25;;;;;;;;;;4960721;28;20030;-69
2023/01/06 07:35:23;;;;;;;14.73;7.30;;;;;;;;;;4957102;28;20108;-69
2023/01/06 07:37:49;;;;;;;13.82;6.40;;;;;;;;;;4960349;28;20038;-69
2023/01/06 07:40:16;;;;;;;12.85;6.20;;;;;;;;;;4958285;28;20038;-69
2023/01/06 07:42:43;;;;;;;13.93;6.18;;;;;;;;;;4960417;28;20030;-69
2023/01/06 07:45:09;;;;;;;13.25;5.85;;;;;;;;;;4957797;28;21049;-68
2023/01/06 07:47:35;;;;;;;10.80;5.22;;;;;;;;;;4959841;28;20074;-68
2023/01/06 07:50:02;;;;;;;9.95;4.47;;;;;;;;;;4959454;28;20034;-68
2023/01/06 07:52:28;;;;;;;10.48;4.32;;;;;;;;;;4961057;28;20030;-70
2023/01/06 07:54:58;;;;;;;10.02;4.32;;;;;;;;;;4959360;28;20104;-67
2023/01/06 07:57:24;;;;;;;9.55;4.40;;;;;;;;;;4970889;28;20038;-67
2023/01/06 07:59:50;;;;;;;10.63;4.60;;;;;;;;;;4959042;28;20102;-68
2023/01/06 08:02:16;;;;;;;12.35;5.55;;;;;;;;;;4959780;28;20030;-69
2023/01/06 08:04:43;;;;;;;10.40;4.85;;;;;;;;;;4954890;28;20034;-70
2023/01/06 08:07:09;;;;;;;11.30;4.88;;;;;;;;;;4955764;28;20072;-68
2023/01/06 08:09:36;;;;;;;9.40;4.03;;;;;;;;;;4957126;28;20050;-67
2023/01/06 08:12:02;;;;;;;13.32;3.95;;;;;;;;;;4959562;28;20432;-69
2023/01/06 08:14:28;;;;;;;9.48;3.65;;;;;;;;;;4954177;28;20301;-69
2023/01/06 08:16:54;;;;;;;8.77;3.40;;;;;;;;;;4958763;28;20142;-69
2023/01/06 08:19:20;;;;;;;8.75;3.00;;;;;;;;;;4969719;28;20141;-68
2023/01/06 08:21:46;;;;;;;9.40;3.20;;;;;;;;;;4960881;28;20601;-68
2023/01/06 08:24:12;;;;;;;8.00;3.08;;;;;;;;;;4954344;28;20157;-69
2023/01/06 08:26:39;;;;;;;9.25;2.75;;;;;;;;;;4960489;28;20262;-69
2023/01/06 08:29:05;;;;;;;9.43;3.00;;;;;;;;;;4959923;28;20026;-69
2023/01/06 08:31:31;;;;;;;9.75;3.40;;;;;;;;;;4958927;28;20448;-69
2023/01/06 08:33:57;;;;;;;13.38;3.67;;;;;;;;;;4955077;28;20027;-69
2023/01/06 08:36:23;;;;;;;16.38;8.48;;;;;;;;;;4967328;28;20034;-68
2023/01/06 08:38:50;;;;;;;10.82;5.60;;;;;;;;;;4955408;28;20031;-68
2023/01/06 08:41:16;;;;;;;11.98;6.10;;;;;;;;;;4957809;28;20030;-69
2023/01/06 08:43:42;;;;;;;;;;;;;;;;;;4956725;28;20038;-68
2023/01/06 08:46:10;;;;;;;15.48;6.68;;;;;;;;;;4952007;28;19952;-69
2023/01/06 08:48:36;;;;;;;14.30;6.50;;;;;;;;;;4955684;28;20050;-69
2023/01/06 08:51:07;;;;;;;15.32;6.90;;;;;;;;;;4958630;28;20527;-69
2023/01/06 08:53:34;;;;;;;15.88;8.43;;;;;;;;;;4956867;28;20034;-69
2023/01/06 08:56:00;;;;;;;14.27;5.85;;;;;;;;;;4969463;28;20049;-68
2023/01/06 08:58:27;;;;;;;11.32;5.85;;;;;;;;;;4948819;28;20061;-69
2023/01/06 09:00:53;;;;;;;14.27;6.13;;;;;;;;;;4959706;28;20039;-69
2023/01/06 09:03:19;;;;;;;;;;;;;;;;;;4955048;28;20556;-69
2023/01/06 09:05:52;;;;;;;13.20;6.07;;;;;;;;;;4951829;28;19914;-69
2023/01/06 09:08:18;;;;;;;13.52;6.97;;;;;;;;;;4955015;28;20026;-69
2023/01/06 09:10:44;;;;;;;12.15;6.60;;;;;;;;;;4953744;28;20567;-69
2023/01/06 09:13:10;;;;;;;14.10;7.20;;;;;;;;;;4953994;28;20491;-69
2023/01/06 09:15:39;;;;;;;13.18;6.60;;;;;;;;;;4958169;28;20045;-68
2023/01/06 09:18:07;;;;;;;14.77;6.63;;;;;;;;;;4958187;28;20489;-68
2023/01/06 09:20:33;;;;;;;11.98;5.90;;;;;;;;;;4952135;28;20026;-68
2023/01/06 09:23:00;;;;;;;13.05;6.72;;;;;;;;;;4969136;28;20265;-68
2023/01/06 09:25:25;;;;;;;;;;;;;;;;;;4955141;28;20112;-69
2023/01/06 09:27:52;;;;;;;14.45;7.75;;;;;;;;;;4956942;28;19918;-68
2023/01/06 09:30:18;;;;;;;;;;;;;;;;;;4956439;28;20129;-69
2023/01/06 09:32:44;;;;;;;14.43;7.75;;;;;;;;;;4959277;28;20695;-68
2023/01/06 09:35:10;;;;;;;;;;;;;;;;;;4949778;28;20109;-67
2023/01/06 09:37:36;;;;;;;19.10;11.45;;;;;;;;;;4953097;28;20107;-69
2023/01/06 09:40:02;;;;;;;25.83;16.60;;;;;;;;;;4959244;28;20045;-69
2023/01/06 09:42:28;;;;;;;25.63;16.23;;;;;;;;;;4956259;28;20030;-69
2023/01/06 09:44:54;;;;;;;;;;;;;;;;;;4955142;28;20057;-69
2023/01/06 09:47:22;;;;;;;21.52;13.43;;;;;;;;;;4955301;28;20067;-69
2023/01/06 09:49:56;;;;;;;21.67;12.18;;;;;;;;;;4960335;28;20535;-69
2023/01/06 09:52:33;;;;;;;18.35;11.05;;;;;;;;;;4957819;28;20550;-68
2023/01/06 09:55:03;;;;;;;17.33;10.23;;;;;;;;;;4957855;28;20774;-68
2023/01/06 09:57:45;;;;;;;18.02;9.68;;;;;;;;;;4955501;28;20034;-68
2023/01/06 10:00:32;;;;;;;17.23;10.15;;;;;;;;;;4955921;28;20050;-70
2023/01/06 10:02:58;;;;;;;16.48;9.13;;;;;;;;;;4946347;28;20042;-68
2023/01/06 10:05:32;;;;;;;15.30;8.40;;;;;;;;;;4952743;28;20659;-67
2023/01/06 10:08:13;;;;;;;16.45;9.10;;;;;;;;;;4958226;28;20027;-67
2023/01/06 10:11:07;;;;;;;13.25;7.53;;;;;;;;;;4960552;28;20108;-68
2023/01/06 10:13:34;;;;;;;16.05;8.05;;;;;;;;;;4960319;28;20049;-68
2023/01/06 10:15:59;;;;;;;;;;;;;;;;;;4959798;28;20042;-68
2023/01/06 10:18:26;;;;;;;13.60;7.38;;;;;;;;;;4952970;28;19925;-68
2023/01/06 10:20:54;;;;;;;13.55;7.10;;;;;;;;;;4957451;28;20099;-68
2023/01/06 10:23:20;;;;;;;14.73;6.78;;;;;;;;;;4955724;28;20486;-70
2023/01/06 10:25:46;;;;;;;;;;;;;;;;;;4958823;28;20419;-69
2023/01/06 10:28:18;;;;;;;12.52;6.75;;;;;;;;;;4956515;28;20235;-68
2023/01/06 10:30:47;;;;;;;14.13;6.40;;;;;;;;;;4960079;28;20026;-70
2023/01/06 10:33:33;;;;;;;14.38;6.45;;;;;;;;;;4953836;28;20038;-68
2023/01/06 10:35:59;;;;;;;10.57;4.35;;;;;;;;;;4958858;28;20702;-68
2023/01/06 10:38:29;;;;;;;10.98;3.40;;;;;;;;;;4955706;28;22642;-68
2023/01/06 10:41:00;;;;;;;10.65;3.60;;;;;;;;;;4957542;28;20034;-68
2023/01/06 10:43:26;;;;;;;7.95;3.20;;;;;;;;;;4956798;28;20038;-69
2023/01/06 10:45:53;;;;;;;7.70;2.63;;;;;;;;;;4974521;28;20030;-69
2023/01/06 10:48:20;;;;;;;7.20;2.50;;;;;;;;;;4958607;28;20432;-68
2023/01/06 10:50:46;;;;;;;8.77;2.72;;;;;;;;;;4957287;28;20484;-68
2023/01/06 10:53:13;;;;;;;7.03;2.13;;;;;;;;;;4954389;28;20112;-68
2023/01/06 10:56:00;;;;;;;9.25;2.35;;;;;;;;;;4956287;28;20441;-70
2023/01/06 10:58:40;;;;;;;9.13;2.70;;;;;;;;;;4953840;28;21611;-71
2023/01/06 11:01:17;;;;;;;8.95;2.70;;;;;;;;;;4960018;28;20146;-70
2023/01/06 11:03:43;;;;;;;;;;;;;;;;;;4959623;28;20781;-70
2023/01/06 11:06:27;;;;;;;9.07;2.50;;;;;;;;;;4958295;28;20269;-70
2023/01/06 11:08:53;;;;;;;7.47;2.67;;;;;;;;;;4959991;28;20463;-70
2023/01/06 11:11:19;;;;;;;7.13;2.40;;;;;;;;;;4959908;28;20050;-70
2023/01/06 11:13:47;;;;;;;7.40;2.45;;;;;;;;;;4957982;28;20038;-68
2023/01/06 11:16:21;;;;;;;7.68;2.47;;;;;;;;;;4957881;28;20058;-69
2023/01/06 11:18:51;;;;;;;7.40;2.40;;;;;;;;;;4957520;28;20031;-69
2023/01/06 11:21:17;;;;;;;9.70;2.65;;;;;;;;;;4957375;28;20135;-68
2023/01/06 11:23:45;;;;;;;9.48;2.78;;;;;;;;;;4975553;28;20057;-70
2023/01/06 11:26:11;;;;;;;7.50;2.50;;;;;;;;;;4959161;28;20465;-69
2023/01/06 11:28:38;;;;;;;7.13;2.55;;;;;;;;;;4960047;28;20033;-71
2023/01/06 11:31:13;;;;;;;7.90;2.70;;;;;;;;;;4960712;28;20038;-69
2023/01/06 11:33:54;;;;;;;7.18;2.40;;;;;;;;;;4959912;28;20402;-69
2023/01/06 11:36:22;;;;;;;8.63;2.60;;;;;;;;;;4956043;28;20038;-68
2023/01/06 11:38:50;;;;;;;8.90;2.53;;;;;;;;;;4959174;28;20034;-70
2023/01/06 11:41:25;;;;;;;8.02;2.70;;;;;;;;;;4957619;28;20060;-70
2023/01/06 11:43:54;;;;;;;9.68;2.60;;;;;;;;;;4958136;28;20129;-70
2023/01/06 11:46:22;;;;;;;10.05;3.05;;;;;;;;;;4957201;28;20034;-69
2023/01/06 11:48:53;;;;;;;8.68;3.15;;;;;;;;;;4958838;28;20047;-69
2023/01/06 11:51:52;;;;;;;8.43;2.35;;;;;;;;;;4957083;28;20137;-69
2023/01/06 11:54:23;;;;;;;9.45;3.25;;;;;;;;;;4896299;29;20081;-69
2023/01/06 11:57:09;;;;;;;8.27;2.65;;;;;;;;;;4900061;29;20047;-69
2023/01/06 11:59:45;;;;;;;7.25;2.90;;;;;;;;;;4862597;29;20039;-68
2023/01/06 12:02:17;;;;;;;8.32;2.72;;;;;;;;;;4899577;29;20475;-68
2023/01/06 12:04:47;;;;;;;14.73;2.70;;;;;;;;;;4896940;29;20046;-68
2023/01/06 12:07:32;;;;;;;9.20;3.13;;;;;;;;;;4896000;29;20123;-68
2023/01/06 12:10:01;;;;;;;8.10;2.60;;;;;;;;;;4882444;29;20127;-68
2023/01/06 12:12:28;;;;;;;7.10;2.50;;;;;;;;;;4894911;29;20146;-68
2023/01/06 12:14:55;;;;;;;7.65;2.53;;;;;;;;;;4899728;29;20120;-68
2023/01/06 12:17:21;;;;;;;7.60;3.00;;;;;;;;;;4896893;29;20073;-68
2023/01/06 12:19:49;;;;;;;8.27;2.63;;;;;;;;;;4900383;29;20158;-68
2023/01/06 12:22:18;;;;;;;6.93;1.90;;;;;;;;;;4897258;29;20538;-68
2023/01/06 12:24:46;;;;;;;8.00;2.42;;;;;;;;;;4899518;29;20657;-68
2023/01/06 12:27:15;;;;;;;6.05;2.10;;;;;;;;;;4895628;29;21068;-68
2023/01/06 12:29:42;;;;;;;8.52;2.95;;;;;;;;;;4924311;28;20072;-69
2023/01/06 12:32:14;;;;;;;10.30;2.40;;;;;;;;;;4957106;28;20121;-68
2023/01/06 12:34:46;;;;;;;6.45;1.92;;;;;;;;;;4958988;28;20117;-68
2023/01/06 12:37:12;;;;;;;12.38;2.40;;;;;;;;;;4956174;28;20110;-69
2023/01/06 12:39:44;;;;;;;6.97;1.85;;;;;;;;;;4957257;28;20031;-68
2023/01/06 12:42:31;;;;;;;8.88;1.88;;;;;;;;;;4955118;28;20037;-68
2023/01/06 12:45:01;;;;;;;7.78;1.95;;;;;;;;;;4957631;28;20026;-68
2023/01/06 12:47:48;;;;;;;6.22;1.75;;;;;;;;;;4954581;28;20061;-68
2023/01/06 12:50:14;;;;;;;;;;;;;;;;;;4955298;28;20400;-67
2023/01/06 12:52:42;;;;;;;6.07;1.90;;;;;;;;;;4958052;28;20198;-68
2023/01/06 12:55:12;;;;;;;6.85;1.80;;;;;;;;;;4956325;28;20046;-70
2023/01/06 12:57:50;;;;;;;8.07;1.75;;;;;;;;;;4957265;28;20041;-68
2023/01/06 13:00:28;;;;;;;8.50;3.17;;;;;;;;;;4955040;28;20445;-69
2023/01/06 13:03:02;;;;;;;8.85;3.40;;;;;;;;;;4958450;28;20038;-67
2023/01/06 13:05:37;;;;;;;11.85;2.90;;;;;;;;;;4953624;28;20112;-70
2023/01/06 13:08:22;;;;;;;9.23;2.90;;;;;;;;;;4957106;28;20030;-70
2023/01/06 13:10:53;;;;;;;11.77;2.85;;;;;;;;;;4958112;28;20022;-68
2023/01/06 13:13:23;;;;;;;6.20;1.80;;;;;;;;;;4952797;28;20474;-69
2023/01/06 13:15:49;;;;;;;6.93;1.80;;;;;;;;;;4961191;28;20026;-69
2023/01/06 13:18:22;;;;;;;7.13;1.80;;;;;;;;;;4953764;28;20045;-68
2023/01/06 13:20:48;;;;;;;5.57;1.85;;;;;;;;;;4955809;28;20045;-69
2023/01/06 13:23:33;;;;;;;8.02;2.40;;;;;;;;;;4953930;28;20587;-69
2023/01/06 13:25:59;;;;;;;9.70;2.78;;;;;;;;;;4957476;28;20041;-69
2023/01/06 13:28:44;;;;;;;8.55;2.20;;;;;;;;;;4954425;28;20030;-69
2023/01/06 13:31:40;;;;;;;7.18;2.47;;;;;;;;;;4955345;28;20113;-69
2023/01/06 13:34:15;;;;;;;9.57;2.60;;;;;;;;;;4954303;28;20050;-69
2023/01/06 13:36:50;;;;;;;6.97;2.30;;;;;;;;;;4957100;28;20548;-69
2023/01/06 13:39:19;;;;;;;6.95;2.33;;;;;;;;;;4955121;28;20034;-69
2023/01/06 13:41:48;;;;;;;7.65;2.30;;;;;;;;;;4955196;28;20138;-69
2023/01/06 13:44:25;;;;;;;8.93;2.40;;;;;;;;;;4952770;28;20345;-68
2023/01/06 13:46:53;;;;;;;7.45;2.47;;;;;;;;;;4957537;28;20145;-69
2023/01/06 13:49:19;;;;;;;7.85;2.28;;;;;;;;;;4951472;28;20033;-68
2023/01/06 13:51:46;;;;;;;8.93;2.10;;;;;;;;;;4958074;28;20348;-70
2023/01/06 13:54:30;;;;;;;6.65;1.77;;;;;;;;;;4954234;28;20699;-69
2023/01/06 13:57:15;;;;;;;6.80;1.90;;;;;;;;;;4955935;28;20606;-70
2023/01/06 13:59:51;;;;;;;8.10;2.13;;;;;;;;;;4971795;28;20068;-68
2023/01/06 14:02:33;;;;;;;8.38;2.70;;;;;;;;;;4953096;28;20486;-70
2023/01/06 14:05:00;;;;;;;8.82;2.40;;;;;;;;;;4955965;28;20053;-69
2023/01/06 14:07:33;;;;;;;7.32;2.00;;;;;;;;;;4954405;28;20066;-69
2023/01/06 14:09:59;;;;;;;5.93;1.80;;;;;;;;;;4958093;28;20515;-70
2023/01/06 14:12:26;;;;;;;6.53;1.80;;;;;;;;;;4955576;28;20988;-69
2023/01/06 14:14:58;;;;;;;6.40;2.17;;;;;;;;;;4956931;28;20459;-69
2023/01/06 14:17:50;;;;;;;8.48;2.20;;;;;;;;;;4953043;28;20460;-69
2023/01/06 14:20:27;;;;;;;7.60;1.98;;;;;;;;;;4951982;28;20050;-69
2023/01/06 14:22:59;;;;;;;9.02;1.70;;;;;;;;;;4957651;28;20555;-67
2023/01/06 14:25:26;;;;;;;6.25;1.75;;;;;;;;;;4954169;28;20030;-66
2023/01/06 14:27:52;;;;;;;6.32;1.60;;;;;;;;;;4971951;28;20137;-66
2023/01/06 14:30:23;;;;;;;6.65;2.17;;;;;;;;;;4952587;28;20027;-67
2023/01/06 14:33:00;;;;;;;8.70;2.20;;;;;;;;;;4958957;28;20030;-66
2023/01/06 14:35:43;;;;;;;8.00;2.20;;;;;;;;;;4955591;28;20799;-66
2023/01/06 14:38:30;;;;;;;7.63;2.88;;;;;;;;;;4955266;28;20065;-66
2023/01/06 14:41:04;;;;;;;7.80;2.60;;;;;;;;;;4961228;28;20026;-66
2023/01/06 14:43:41;;;;;;;7.68;2.05;;;;;;;;;;4956350;28;20345;-66
2023/01/06 14:46:13;;;;;;;8.55;2.38;;;;;;;;;;4955227;28;20031;-65
2023/01/06 14:48:42;;;;;;;7.53;2.50;;;;;;;;;;4958396;28;20160;-66
2023/01/06 14:51:12;;;;;;;7.07;2.00;;;;;;;;;;4956044;28;20146;-65
2023/01/06 14:53:42;;;;;;;8.60;2.22;;;;;;;;;;4959559;28;20046;-65
2023/01/06 14:56:28;;;;;;;12.27;5.95;;;;;;;;;;4956962;28;20030;-66
2023/01/06 14:59:05;;;;;;;8.82;2.85;;;;;;;;;;4957326;28;20037;-65
2023/01/06 15:01:31;;;;;;;;;;;;;;;;;;4972342;28;20715;-65